sensor_id;sensor_type;location;lat;lon;timestamp;P1;durP1;ratioP1;P2;durP2;ratioP2
58770;SDS011;44539;42.962;1.596;2022-12-07T07:46:42;15.57;;;9.30;;
58770;SDS011;44539;42.962;1.596;2022-12-07T07:49:08;16.17;;;8.27;;
58770;SDS011;44539;42.962;1.596;2022-12-07T07:51:35;16.27;;;8.10;;
58770;SDS011;44539;42.962;1.596;2022-12-07T07:54:00;14.65;;;8.55;;
58770;SDS011;44539;42.962;1.596;2022-12-07T07:56:26;17.10;;;7.90;;
58770;SDS011;44539;42.962;1.596;2022-12-07T07:58:52;15.32;;;8.25;;
58770;SDS011;44539;42.962;1.596;2022-12-07T08:01:17;18.98;;;8.35;;
58770;SDS011;44539;42.962;1.596;2022-12-07T08:03:44;16.33;;;8.40;;
58770;SDS011;44539;42.962;1.596;2022-12-07T08:06:11;15.90;;;8.25;;
58770;SDS011;44539;42.962;1.596;2022-12-07T08:08:36;17.77;;;9.18;;
58770;SDS011;44539;42.962;1.596;2022-12-07T08:11:04;16.75;;;8.13;;
58770;SDS011;44539;42.962;1.596;2022-12-07T08:13:30;20.02;;;9.10;;
58770;SDS011;44539;42.962;1.596;2022-12-07T08:15:56;17.38;;;9.52;;
58770;SDS011;44539;42.962;1.596;2022-12-07T08:18:21;18.17;;;9.43;;
58770;SDS011;44539;42.962;1.596;2022-12-07T08:20:47;20.98;;;9.25;;
58770;SDS011;44539;42.962;1.596;2022-12-07T08:23:12;20.95;;;10.32;;
58770;SDS011;44539;42.962;1.596;2022-12-07T08:25:38;22.52;;;10.18;;
58770;SDS011;44539;42.962;1.596;2022-12-07T08:28:04;19.35;;;9.52;;
58770;SDS011;44539;42.962;1.596;2022-12-07T08:30:29;18.15;;;10.55;;
58770;SDS011;44539;42.962;1.596;2022-12-07T08:32:56;23.20;;;11.02;;
58770;SDS011;44539;42.962;1.596;2022-12-07T08:35:21;18.50;;;10.20;;
58770;SDS011;44539;42.962;1.596;2022-12-07T08:37:47;22.30;;;11.10;;
58770;SDS011;44539;42.962;1.596;2022-12-07T08:40:13;24.23;;;11.15;;
58770;SDS011;44539;42.962;1.596;2022-12-07T08:42:44;18.65;;;9.45;;
58770;SDS011;44539;42.962;1.596;2022-12-07T08:45:14;18.48;;;9.52;;
58770;SDS011;44539;42.962;1.596;2022-12-07T08:47:48;21.95;;;11.13;;
58770;SDS011;44539;42.962;1.596;2022-12-07T08:50:17;17.90;;;10.40;;
58770;SDS011;44539;42.962;1.596;2022-12-07T08:52:43;18.92;;;10.25;;
58770;SDS011;44539;42.962;1.596;2022-12-07T08:55:10;21.05;;;10.75;;
58770;SDS011;44539;42.962;1.596;2022-12-07T08:57:36;22.27;;;10.75;;
58770;SDS011;44539;42.962;1.596;2022-12-07T09:00:03;19.40;;;10.95;;
58770;SDS011;44539;42.962;1.596;2022-12-07T09:02:30;23.95;;;11.80;;
58770;SDS011;44539;42.962;1.596;2022-12-07T09:04:56;22.88;;;13.10;;
58770;SDS011;44539;42.962;1.596;2022-12-07T09:07:21;17.88;;;10.18;;
58770;SDS011;44539;42.962;1.596;2022-12-07T09:09:47;17.40;;;9.82;;
58770;SDS011;44539;42.962;1.596;2022-12-07T09:12:12;17.98;;;9.15;;
58770;SDS011;44539;42.962;1.596;2022-12-07T09:14:38;19.13;;;8.98;;
58770;SDS011;44539;42.962;1.596;2022-12-07T09:17:07;15.38;;;8.43;;
58770;SDS011;44539;42.962;1.596;2022-12-07T09:19:33;14.80;;;8.35;;
58770;SDS011;44539;42.962;1.596;2022-12-07T09:21:58;15.73;;;8.05;;
58770;SDS011;44539;42.962;1.596;2022-12-07T09:24:24;17.27;;;8.70;;
58770;SDS011;44539;42.962;1.596;2022-12-07T09:26:49;14.88;;;7.50;;
58770;SDS011;44539;42.962;1.596;2022-12-07T09:29:14;13.82;;;6.75;;
58770;SDS011;44539;42.962;1.596;2022-12-07T09:31:40;11.55;;;7.10;;
58770;SDS011;44539;42.962;1.596;2022-12-07T09:34:05;10.82;;;4.30;;
58770;SDS011;44539;42.962;1.596;2022-12-07T09:36:32;10.10;;;5.25;;
58770;SDS011;44539;42.962;1.596;2022-12-07T09:38:58;9.35;;;4.90;;
58770;SDS011;44539;42.962;1.596;2022-12-07T09:41:24;6.13;;;3.40;;
58770;SDS011;44539;42.962;1.596;2022-12-07T09:43:52;7.80;;;4.22;;
58770;SDS011;44539;42.962;1.596;2022-12-07T09:46:21;7.25;;;4.25;;
58770;SDS011;44539;42.962;1.596;2022-12-07T09:48:47;7.55;;;4.13;;
58770;SDS011;44539;42.962;1.596;2022-12-07T09:51:16;8.00;;;4.38;;
58770;SDS011;44539;42.962;1.596;2022-12-07T09:53:44;9.73;;;4.20;;
58770;SDS011;44539;42.962;1.596;2022-12-07T09:56:13;8.57;;;4.43;;
58770;SDS011;44539;42.962;1.596;2022-12-07T09:58:40;8.88;;;3.75;;
58770;SDS011;44539;42.962;1.596;2022-12-07T10:03:33;7.88;;;4.45;;
58770;SDS011;44539;42.962;1.596;2022-12-07T10:06:00;6.93;;;4.32;;
58770;SDS011;44539;42.962;1.596;2022-12-07T10:08:26;8.00;;;4.72;;
58770;SDS011;44539;42.962;1.596;2022-12-07T10:10:52;10.27;;;4.85;;
58770;SDS011;44539;42.962;1.596;2022-12-07T10:14:10;7.47;;;4.05;;
58770;SDS011;44539;42.962;1.596;2022-12-07T10:16:59;7.03;;;3.63;;
58770;SDS011;44539;42.962;1.596;2022-12-07T10:19:37;6.15;;;3.25;;
58770;SDS011;44539;42.962;1.596;2022-12-07T10:24:38;5.85;;;2.85;;
58770;SDS011;44539;42.962;1.596;2022-12-07T10:27:16;4.38;;;2.67;;
58770;SDS011;44539;42.962;1.596;2022-12-07T10:29:55;5.45;;;2.95;;
58770;SDS011;44539;42.962;1.596;2022-12-07T10:32:33;5.32;;;2.78;;
58770;SDS011;44539;42.962;1.596;2022-12-07T10:37:47;5.05;;;2.53;;
58770;SDS011;44539;42.962;1.596;2022-12-07T10:42:59;8.68;;;3.17;;
58770;SDS011;44539;42.962;1.596;2022-12-07T10:45:26;4.40;;;2.35;;
58770;SDS011;44539;42.962;1.596;2022-12-07T10:47:54;3.33;;;2.20;;
58770;SDS011;44539;42.962;1.596;2022-12-07T11:11:37;4.10;;;2.20;;
58770;SDS011;44539;42.962;1.596;2022-12-07T11:14:19;3.13;;;1.70;;
58770;SDS011;44539;42.962;1.596;2022-12-07T11:16:58;4.25;;;1.70;;
58770;SDS011;44539;42.962;1.596;2022-12-07T11:22:46;4.32;;;1.80;;
58770;SDS011;44539;42.962;1.596;2022-12-07T11:41:08;5.20;;;1.50;;
58770;SDS011;44539;42.962;1.596;2022-12-07T11:43:58;2.83;;;1.33;;
58770;SDS011;44539;42.962;1.596;2022-12-07T11:46:27;2.65;;;1.60;;
58770;SDS011;44539;42.962;1.596;2022-12-07T11:51:51;2.15;;;1.23;;
58770;SDS011;44539;42.962;1.596;2022-12-07T11:54:25;2.60;;;1.10;;
58770;SDS011;44539;42.962;1.596;2022-12-07T11:56:55;2.30;;;1.50;;
58770;SDS011;44539;42.962;1.596;2022-12-07T11:59:28;3.97;;;1.50;;
58770;SDS011;44539;42.962;1.596;2022-12-07T12:07:20;2.67;;;1.50;;
58770;SDS011;44539;42.962;1.596;2022-12-07T12:09:53;3.28;;;1.40;;
58770;SDS011;44539;42.962;1.596;2022-12-07T12:25:56;2.90;;;1.40;;
58770;SDS011;44539;42.962;1.596;2022-12-07T12:33:52;1.95;;;1.20;;
58770;SDS011;44539;42.962;1.596;2022-12-07T12:44:00;3.03;;;1.48;;
58770;SDS011;44539;42.962;1.596;2022-12-07T12:51:56;3.65;;;1.88;;
58770;SDS011;44539;42.962;1.596;2022-12-07T12:57:27;3.70;;;1.85;;
58770;SDS011;44539;42.962;1.596;2022-12-07T12:59:58;5.03;;;1.70;;
58770;SDS011;44539;42.962;1.596;2022-12-07T13:28:51;5.07;;;2.78;;
58770;SDS011;44539;42.962;1.596;2022-12-07T13:31:33;7.35;;;3.55;;
58770;SDS011;44539;42.962;1.596;2022-12-07T13:34:04;8.07;;;4.00;;
58770;SDS011;44539;42.962;1.596;2022-12-07T13:36:50;8.27;;;3.83;;
58770;SDS011;44539;42.962;1.596;2022-12-07T13:41:43;5.93;;;3.00;;
58770;SDS011;44539;42.962;1.596;2022-12-07T13:44:14;5.68;;;3.22;;
58770;SDS011;44539;42.962;1.596;2022-12-07T13:49:21;6.20;;;3.45;;
58770;SDS011;44539;42.962;1.596;2022-12-07T13:51:51;6.75;;;3.58;;
58770;SDS011;44539;42.962;1.596;2022-12-07T13:54:17;6.93;;;4.10;;
58770;SDS011;44539;42.962;1.596;2022-12-07T13:56:47;6.38;;;3.65;;
58770;SDS011;44539;42.962;1.596;2022-12-07T13:59:21;5.97;;;3.20;;
58770;SDS011;44539;42.962;1.596;2022-12-07T14:01:49;7.05;;;3.30;;
58770;SDS011;44539;42.962;1.596;2022-12-07T14:06:52;5.65;;;2.75;;
58770;SDS011;44539;42.962;1.596;2022-12-07T14:09:19;5.53;;;2.65;;
58770;SDS011;44539;42.962;1.596;2022-12-07T14:11:47;6.15;;;2.67;;
58770;SDS011;44539;42.962;1.596;2022-12-07T14:14:16;5.13;;;2.88;;
58770;SDS011;44539;42.962;1.596;2022-12-07T14:16:55;5.78;;;2.60;;
58770;SDS011;44539;42.962;1.596;2022-12-07T14:22:07;7.75;;;3.67;;
58770;SDS011;44539;42.962;1.596;2022-12-07T14:24:41;5.07;;;3.60;;
58770;SDS011;44539;42.962;1.596;2022-12-07T14:27:15;4.53;;;2.90;;
58770;SDS011;44539;42.962;1.596;2022-12-07T14:29:42;6.60;;;3.28;;
58770;SDS011;44539;42.962;1.596;2022-12-07T14:34:55;11.25;;;3.38;;
58770;SDS011;44539;42.962;1.596;2022-12-07T14:37:22;4.80;;;2.97;;
58770;SDS011;44539;42.962;1.596;2022-12-07T14:39:47;4.90;;;2.80;;
58770;SDS011;44539;42.962;1.596;2022-12-07T14:42:13;6.93;;;3.30;;
58770;SDS011;44539;42.962;1.596;2022-12-07T14:44:38;6.50;;;2.97;;
58770;SDS011;44539;42.962;1.596;2022-12-07T14:47:03;5.35;;;3.08;;
58770;SDS011;44539;42.962;1.596;2022-12-07T14:49:29;7.32;;;3.00;;
58770;SDS011;44539;42.962;1.596;2022-12-07T14:51:54;6.30;;;3.03;;
58770;SDS011;44539;42.962;1.596;2022-12-07T14:54:20;6.28;;;3.25;;
58770;SDS011;44539;42.962;1.596;2022-12-07T14:56:50;6.28;;;3.17;;
58770;SDS011;44539;42.962;1.596;2022-12-07T14:59:16;6.65;;;3.58;;
58770;SDS011;44539;42.962;1.596;2022-12-07T15:01:42;6.55;;;3.58;;
58770;SDS011;44539;42.962;1.596;2022-12-07T15:04:08;6.60;;;3.58;;
58770;SDS011;44539;42.962;1.596;2022-12-07T15:06:34;7.43;;;3.65;;
58770;SDS011;44539;42.962;1.596;2022-12-07T15:09:00;6.20;;;3.60;;
58770;SDS011;44539;42.962;1.596;2022-12-07T15:11:25;7.35;;;3.45;;
58770;SDS011;44539;42.962;1.596;2022-12-07T15:13:51;7.22;;;3.78;;
58770;SDS011;44539;42.962;1.596;2022-12-07T15:16:39;6.97;;;3.90;;
58770;SDS011;44539;42.962;1.596;2022-12-07T15:19:07;7.05;;;3.72;;
58770;SDS011;44539;42.962;1.596;2022-12-07T15:21:42;6.30;;;3.63;;
58770;SDS011;44539;42.962;1.596;2022-12-07T15:24:08;6.30;;;3.83;;
58770;SDS011;44539;42.962;1.596;2022-12-07T15:26:35;6.03;;;3.58;;
58770;SDS011;44539;42.962;1.596;2022-12-07T15:29:00;7.03;;;3.58;;
58770;SDS011;44539;42.962;1.596;2022-12-07T15:31:25;8.65;;;3.97;;
58770;SDS011;44539;42.962;1.596;2022-12-07T15:33:51;8.45;;;3.80;;
58770;SDS011;44539;42.962;1.596;2022-12-07T15:36:23;6.55;;;3.67;;
58770;SDS011;44539;42.962;1.596;2022-12-07T15:38:51;8.90;;;4.22;;
58770;SDS011;44539;42.962;1.596;2022-12-07T15:41:16;6.20;;;3.58;;
58770;SDS011;44539;42.962;1.596;2022-12-07T15:43:42;9.95;;;4.68;;
58770;SDS011;44539;42.962;1.596;2022-12-07T15:46:33;10.18;;;5.45;;
58770;SDS011;44539;42.962;1.596;2022-12-07T15:49:01;8.82;;;4.20;;
58770;SDS011;44539;42.962;1.596;2022-12-07T15:51:27;8.30;;;4.25;;
58770;SDS011;44539;42.962;1.596;2022-12-07T15:53:53;7.78;;;4.00;;
58770;SDS011;44539;42.962;1.596;2022-12-07T15:56:19;10.20;;;4.20;;
58770;SDS011;44539;42.962;1.596;2022-12-07T15:58:45;8.80;;;4.47;;
58770;SDS011;44539;42.962;1.596;2022-12-07T16:15:48;11.57;;;5.80;;
58770;SDS011;44539;42.962;1.596;2022-12-07T16:18:14;9.70;;;5.88;;
58770;SDS011;44539;42.962;1.596;2022-12-07T16:20:39;10.00;;;5.85;;
58770;SDS011;44539;42.962;1.596;2022-12-07T16:23:05;12.00;;;6.30;;
58770;SDS011;44539;42.962;1.596;2022-12-07T16:25:32;9.32;;;5.70;;
58770;SDS011;44539;42.962;1.596;2022-12-07T16:27:58;10.93;;;6.25;;
58770;SDS011;44539;42.962;1.596;2022-12-07T16:30:23;11.48;;;6.72;;
58770;SDS011;44539;42.962;1.596;2022-12-07T16:32:50;10.43;;;6.80;;
58770;SDS011;44539;42.962;1.596;2022-12-07T16:35:16;10.82;;;6.43;;
58770;SDS011;44539;42.962;1.596;2022-12-07T16:37:41;12.05;;;6.72;;
58770;SDS011;44539;42.962;1.596;2022-12-07T16:40:07;12.93;;;7.38;;
58770;SDS011;44539;42.962;1.596;2022-12-07T16:42:34;13.90;;;7.88;;
58770;SDS011;44539;42.962;1.596;2022-12-07T16:44:59;14.88;;;7.03;;
58770;SDS011;44539;42.962;1.596;2022-12-07T16:47:26;13.02;;;7.18;;
58770;SDS011;44539;42.962;1.596;2022-12-07T16:49:51;11.35;;;7.13;;
58770;SDS011;44539;42.962;1.596;2022-12-07T16:52:17;12.68;;;6.50;;
58770;SDS011;44539;42.962;1.596;2022-12-07T16:54:43;13.15;;;7.40;;
58770;SDS011;44539;42.962;1.596;2022-12-07T16:57:09;13.95;;;7.20;;
58770;SDS011;44539;42.962;1.596;2022-12-07T16:59:35;12.73;;;7.22;;
58770;SDS011;44539;42.962;1.596;2022-12-07T17:02:00;12.45;;;7.43;;
58770;SDS011;44539;42.962;1.596;2022-12-07T17:04:26;15.23;;;8.05;;
58770;SDS011;44539;42.962;1.596;2022-12-07T17:06:51;15.38;;;8.05;;
58770;SDS011;44539;42.962;1.596;2022-12-07T17:09:16;14.82;;;7.85;;
58770;SDS011;44539;42.962;1.596;2022-12-07T17:11:43;15.90;;;8.93;;
58770;SDS011;44539;42.962;1.596;2022-12-07T17:14:10;16.75;;;9.07;;
58770;SDS011;44539;42.962;1.596;2022-12-07T17:16:54;17.83;;;9.02;;
58770;SDS011;44539;42.962;1.596;2022-12-07T17:19:20;17.30;;;9.20;;
58770;SDS011;44539;42.962;1.596;2022-12-07T17:21:45;13.00;;;8.20;;
58770;SDS011;44539;42.962;1.596;2022-12-07T17:24:12;16.70;;;8.50;;
58770;SDS011;44539;42.962;1.596;2022-12-07T17:26:39;15.15;;;8.43;;
58770;SDS011;44539;42.962;1.596;2022-12-07T17:29:06;16.13;;;8.07;;
58770;SDS011;44539;42.962;1.596;2022-12-07T17:31:33;14.32;;;8.43;;
58770;SDS011;44539;42.962;1.596;2022-12-07T17:33:59;12.68;;;7.55;;
58770;SDS011;44539;42.962;1.596;2022-12-07T17:36:27;12.93;;;7.57;;
58770;SDS011;44539;42.962;1.596;2022-12-07T17:38:54;18.63;;;9.43;;
58770;SDS011;44539;42.962;1.596;2022-12-07T17:41:21;17.27;;;8.70;;
58770;SDS011;44539;42.962;1.596;2022-12-07T17:44:08;13.55;;;7.88;;
58770;SDS011;44539;42.962;1.596;2022-12-07T17:46:35;13.77;;;7.90;;
58770;SDS011;44539;42.962;1.596;2022-12-07T17:49:02;15.93;;;7.97;;
58770;SDS011;44539;42.962;1.596;2022-12-07T18:26:09;13.15;;;7.93;;
58770;SDS011;44539;42.962;1.596;2022-12-07T18:28:35;17.15;;;9.05;;
